createdAt,value
2019-04-01T00:01:24.184Z,3.10
2019-04-01T00:04:25.728Z,2.65
2019-04-01T00:07:27.157Z,2.60
2019-04-01T00:10:28.647Z,2.90
2019-04-01T00:13:30.071Z,2.83
2019-04-01T00:16:31.556Z,2.67
2019-04-01T00:19:33.011Z,3.02
2019-04-01T00:22:34.441Z,2.90
2019-04-01T00:25:35.919Z,2.70
2019-04-01T00:28:37.352Z,2.85
2019-04-01T00:31:40.043Z,2.67
2019-04-01T00:34:41.457Z,2.60
2019-04-01T00:37:42.959Z,2.83
2019-04-01T00:40:44.387Z,3.10
2019-04-01T00:43:53.260Z,3.08
2019-04-01T00:46:54.795Z,2.80
2019-04-01T00:49:56.213Z,2.77
2019-04-01T00:52:58.742Z,2.47
2019-04-01T00:56:00.195Z,2.60
2019-04-01T00:59:01.651Z,3.05
2019-04-01T01:02:03.133Z,2.90
2019-04-01T01:05:04.696Z,3.02
2019-04-01T01:08:06.219Z,2.90
2019-04-01T01:11:07.680Z,2.95
2019-04-01T01:14:09.134Z,2.92
2019-04-01T01:17:10.559Z,2.90
2019-04-01T01:20:12.274Z,2.90
2019-04-01T01:23:13.676Z,2.98
2019-04-01T01:26:15.128Z,2.98
2019-04-01T01:29:16.560Z,3.30
2019-04-01T01:32:18.094Z,2.92
2019-04-01T01:35:19.511Z,3.15
2019-04-01T01:38:21.063Z,2.80
2019-04-01T01:41:22.489Z,2.70
2019-04-01T01:44:23.933Z,2.85
2019-04-01T01:47:27.459Z,2.83
2019-04-01T01:50:28.925Z,2.75
2019-04-01T01:53:30.357Z,3.87
2019-04-01T01:56:31.780Z,2.92
2019-04-01T01:59:33.208Z,3.00
2019-04-01T02:02:34.790Z,3.00
2019-04-01T02:05:36.285Z,3.20
2019-04-01T02:08:37.787Z,2.92
2019-04-01T02:11:39.201Z,2.95
2019-04-01T02:14:40.636Z,3.37
2019-04-01T02:17:42.577Z,3.35
2019-04-01T02:20:43.986Z,3.20
2019-04-01T02:23:45.445Z,3.22
2019-04-01T02:26:46.853Z,2.95
2019-04-01T02:29:48.336Z,3.40
2019-04-01T02:32:49.849Z,3.10
2019-04-01T02:35:51.304Z,3.10
2019-04-01T02:38:52.779Z,3.67
2019-04-01T02:41:54.207Z,3.60
2019-04-01T02:44:55.665Z,3.47
2019-04-01T02:47:57.121Z,3.98
2019-04-01T02:50:58.639Z,3.42
2019-04-01T02:54:00.059Z,3.80
2019-04-01T02:57:01.538Z,3.60
2019-04-01T03:00:02.969Z,3.47
2019-04-01T03:03:04.995Z,3.77
2019-04-01T03:06:06.552Z,3.30
2019-04-01T03:09:08.823Z,3.30
2019-04-01T03:12:10.289Z,3.62
2019-04-01T03:15:11.751Z,3.50
2019-04-01T03:18:13.253Z,3.52
2019-04-01T03:21:14.700Z,3.37
2019-04-01T03:24:16.188Z,3.83
2019-04-01T03:27:17.817Z,3.98
2019-04-01T03:30:20.341Z,3.72
2019-04-01T03:33:21.793Z,3.80
2019-04-01T03:36:23.279Z,3.87
2019-04-01T03:39:24.681Z,4.15
2019-04-01T03:42:26.129Z,3.75
2019-04-01T03:45:27.621Z,3.92
2019-04-01T03:48:29.087Z,3.95
2019-04-01T03:51:30.546Z,4.47
2019-04-01T03:54:31.970Z,4.00
2019-04-01T03:57:33.443Z,3.98
2019-04-01T04:00:34.847Z,4.25
2019-04-01T04:03:36.306Z,4.00
2019-04-01T04:06:37.810Z,4.22
2019-04-01T04:09:39.319Z,4.28
2019-04-01T04:12:40.820Z,3.77
2019-04-01T04:15:42.313Z,4.80
2019-04-01T04:18:43.789Z,3.85
2019-04-01T04:21:45.257Z,4.15
2019-04-01T04:24:46.726Z,4.30
2019-04-01T04:27:48.177Z,4.30
2019-04-01T04:30:49.640Z,4.28
2019-04-01T04:33:51.118Z,4.58
2019-04-01T04:36:52.561Z,4.65
2019-04-01T04:39:54.006Z,4.50
2019-04-01T04:42:55.454Z,4.22
2019-04-01T04:45:56.898Z,4.83
2019-04-01T04:48:58.345Z,4.78
2019-04-01T04:51:59.763Z,4.62
2019-04-01T04:55:01.234Z,4.90
2019-04-01T04:58:02.666Z,4.50
2019-04-01T05:01:04.144Z,4.62
2019-04-01T05:04:05.594Z,4.22
2019-04-01T05:07:07.043Z,4.47
2019-04-01T05:10:09.750Z,4.17
2019-04-01T05:13:11.176Z,5.00
2019-04-01T05:16:12.641Z,4.80
2019-04-01T05:19:14.106Z,4.87
2019-04-01T05:22:15.622Z,4.58
2019-04-01T05:25:17.148Z,4.53
2019-04-01T05:28:19.314Z,5.25
2019-04-01T05:31:23.212Z,5.12
2019-04-01T05:34:25.952Z,4.85
2019-04-01T05:37:27.389Z,4.72
2019-04-01T05:40:28.827Z,5.05
2019-04-01T05:43:31.384Z,4.37
2019-04-01T05:46:32.938Z,4.42
2019-04-01T05:49:35.041Z,5.10
2019-04-01T05:52:36.479Z,4.85
2019-04-01T05:55:37.950Z,4.67
2019-04-01T05:58:39.444Z,4.53
2019-04-01T06:01:46.230Z,4.87
2019-04-01T06:04:48.177Z,4.62
2019-04-01T06:07:57.019Z,4.30
2019-04-01T06:10:58.608Z,4.27
2019-04-01T06:14:00.103Z,4.70
2019-04-01T06:17:01.784Z,4.35
2019-04-01T06:20:03.452Z,4.55
2019-04-01T06:23:04.934Z,4.42
2019-04-01T06:26:06.832Z,4.97
2019-04-01T06:29:08.362Z,4.25
2019-04-01T06:32:09.837Z,5.08
2019-04-01T06:35:11.388Z,5.03
2019-04-01T06:38:12.816Z,5.20
2019-04-01T06:41:15.345Z,5.00
2019-04-01T06:44:16.799Z,5.33
2019-04-01T06:47:18.237Z,5.05
2019-04-01T06:50:19.650Z,5.30
2019-04-01T06:53:21.172Z,5.05
2019-04-01T06:56:22.571Z,5.10
2019-04-01T06:59:24.052Z,4.90
2019-04-01T07:02:25.498Z,5.20
2019-04-01T07:05:26.935Z,4.60
2019-04-01T07:08:29.387Z,4.83
2019-04-01T07:11:31.180Z,5.20
2019-04-01T07:14:32.802Z,5.00
2019-04-01T07:17:34.428Z,11.68
2019-04-01T07:20:35.883Z,11.43
2019-04-01T07:23:37.336Z,9.88
2019-04-01T07:26:38.986Z,9.15
2019-04-01T07:29:40.543Z,10.30
2019-04-01T07:32:42.408Z,10.93
2019-04-01T07:35:46.696Z,9.90
2019-04-01T07:38:47.087Z,9.88
2019-04-01T07:41:48.476Z,9.73
2019-04-01T07:44:50.109Z,9.43
2019-04-01T07:47:51.841Z,10.30
2019-04-01T07:50:53.297Z,10.13
2019-04-01T07:53:54.745Z,10.32
2019-04-01T07:56:56.822Z,10.75
2019-04-01T07:59:59.186Z,10.00
2019-04-01T08:03:00.659Z,9.40
2019-04-01T08:06:02.102Z,9.73
2019-04-01T08:09:05.480Z,8.80
2019-04-01T08:12:07.227Z,8.85
2019-04-01T08:15:09.234Z,8.85
2019-04-01T08:18:10.685Z,8.00
2019-04-01T08:21:12.679Z,8.18
2019-04-01T08:24:14.161Z,7.67
2019-04-01T08:27:15.574Z,7.78
2019-04-01T08:30:18.189Z,8.60
2019-04-01T08:33:19.626Z,8.15
2019-04-01T08:36:21.105Z,7.60
2019-04-01T08:39:22.626Z,8.10
2019-04-01T08:42:24.114Z,7.60
2019-04-01T08:45:25.533Z,8.75
2019-04-01T08:48:26.980Z,7.60
2019-04-01T08:51:28.526Z,8.03
2019-04-01T08:54:29.985Z,7.78
2019-04-01T08:57:31.418Z,7.97
2019-04-01T09:00:32.881Z,7.87
2019-04-01T09:03:34.285Z,7.50
2019-04-01T09:06:35.762Z,7.40
2019-04-01T09:09:38.231Z,7.17
2019-04-01T09:12:39.835Z,6.97
2019-04-01T09:15:41.310Z,7.00
2019-04-01T09:18:42.784Z,7.00
2019-04-01T09:21:44.221Z,7.05
2019-04-01T09:24:45.686Z,7.12
2019-04-01T09:27:47.149Z,6.70
2019-04-01T09:30:48.578Z,7.33
2019-04-01T09:33:49.996Z,7.72
2019-04-01T09:36:51.502Z,6.87
2019-04-01T09:39:52.893Z,7.03
2019-04-01T09:42:54.318Z,6.30
2019-04-01T09:45:55.716Z,6.75
2019-04-01T09:48:57.204Z,6.47
2019-04-01T09:51:58.627Z,6.55
2019-04-01T09:55:00.341Z,6.62
2019-04-01T09:58:01.788Z,6.20
2019-04-01T10:01:03.238Z,6.00
2019-04-01T10:04:05.753Z,6.67
2019-04-01T10:07:07.365Z,5.97
2019-04-01T10:10:08.973Z,11.40
2019-04-01T10:13:10.446Z,14.18
2019-04-01T10:16:11.967Z,16.73
2019-04-01T10:19:13.391Z,13.32
2019-04-01T10:22:14.847Z,14.65
2019-04-01T10:25:24.062Z,14.63
2019-04-01T10:28:22.669Z,15.55
2019-04-01T10:31:24.090Z,15.48
2019-04-01T10:34:25.617Z,16.30
2019-04-01T10:37:27.087Z,17.82
2019-04-01T10:40:28.578Z,15.10
2019-04-01T10:43:30.035Z,14.45
2019-04-01T10:46:31.648Z,16.25
2019-04-01T10:49:33.222Z,16.12
2019-04-01T10:52:34.661Z,18.05
2019-04-01T10:55:39.152Z,19.87
2019-04-01T10:58:40.735Z,20.90
2019-04-01T11:01:42.141Z,19.00
2019-04-01T11:04:43.657Z,17.75
2019-04-01T11:07:45.533Z,14.47
2019-04-01T11:10:47.021Z,20.92
2019-04-01T11:13:51.576Z,18.95
2019-04-01T11:16:51.615Z,16.93
2019-04-01T11:19:53.105Z,15.08
2019-04-01T11:22:54.505Z,18.00
2019-04-01T11:25:55.535Z,17.77
2019-04-01T11:28:56.867Z,18.45
2019-04-01T11:31:58.309Z,14.28
2019-04-01T11:34:59.770Z,14.45
2019-04-01T11:38:01.244Z,13.15
2019-04-01T11:41:02.689Z,15.60
2019-04-01T11:44:04.105Z,21.95
2019-04-01T11:47:05.539Z,25.17
2019-04-01T11:50:08.871Z,19.60
2019-04-01T11:53:10.263Z,16.52
2019-04-01T11:56:11.632Z,15.80
2019-04-01T11:59:13.083Z,18.45
2019-04-01T12:02:14.447Z,17.32
2019-04-01T12:05:15.920Z,17.30
2019-04-01T12:08:17.464Z,18.42
2019-04-01T12:11:18.949Z,20.08
2019-04-01T12:14:20.412Z,19.23
2019-04-01T12:17:21.893Z,15.83
2019-04-01T12:20:23.445Z,19.37
2019-04-01T12:23:24.869Z,19.07
2019-04-01T12:26:26.380Z,17.12
2019-04-01T12:29:27.805Z,19.45
2019-04-01T12:32:29.259Z,17.12
2019-04-01T12:35:30.681Z,18.77
2019-04-01T12:38:32.159Z,18.10
2019-04-01T12:41:33.625Z,16.27
2019-04-01T12:44:35.076Z,17.37
2019-04-01T12:47:36.557Z,17.20
2019-04-01T12:50:37.976Z,17.02
2019-04-01T12:53:39.602Z,18.02
2019-04-01T12:56:41.047Z,16.45
2019-04-01T12:59:45.784Z,15.18
2019-04-01T13:02:45.781Z,14.78
2019-04-01T13:05:47.361Z,15.80
2019-04-01T13:08:48.807Z,16.00
2019-04-01T13:11:50.232Z,16.00
2019-04-01T13:14:55.310Z,15.15
2019-04-01T13:17:55.898Z,15.65
2019-04-01T13:20:57.383Z,16.00
2019-04-01T13:23:58.805Z,17.07
2019-04-01T13:27:00.639Z,15.48
2019-04-01T13:30:02.042Z,14.58
2019-04-01T13:33:03.606Z,16.25
2019-04-01T13:36:07.679Z,14.80
2019-04-01T13:39:09.949Z,11.50
2019-04-01T13:42:11.795Z,9.88
2019-04-01T13:45:13.259Z,10.55
2019-04-01T13:48:14.702Z,10.88
2019-04-01T13:51:16.167Z,10.23
2019-04-01T13:54:17.690Z,10.63
2019-04-01T13:57:19.132Z,9.18
2019-04-01T14:00:21.814Z,9.30
2019-04-01T14:03:23.911Z,9.23
2019-04-01T14:06:25.421Z,9.70
2019-04-01T14:09:26.881Z,10.60
2019-04-01T14:12:28.402Z,10.00
2019-04-01T14:15:29.832Z,10.38
2019-04-01T14:18:31.278Z,11.33
2019-04-01T14:21:32.703Z,10.43
2019-04-01T14:24:34.195Z,9.85
2019-04-01T14:27:35.643Z,10.38
2019-04-01T14:30:37.096Z,11.10
2019-04-01T14:33:38.548Z,9.68
2019-04-01T14:36:40.021Z,9.90
2019-04-01T14:39:41.503Z,10.05
2019-04-01T14:42:42.987Z,10.32
2019-04-01T14:45:44.409Z,10.05
2019-04-01T14:48:46.316Z,7.47
2019-04-01T14:51:47.782Z,10.98
2019-04-01T14:54:49.221Z,10.30
2019-04-01T14:57:50.687Z,9.85
2019-04-01T15:00:52.110Z,11.48
2019-04-01T15:03:53.575Z,9.30
2019-04-01T15:06:55.443Z,7.72
2019-04-01T15:09:56.877Z,9.08
2019-04-01T15:13:04.958Z,8.53
2019-04-01T15:16:01.598Z,8.63
2019-04-01T15:19:03.180Z,10.50
2019-04-01T15:22:05.119Z,354.87
2019-04-01T15:25:06.768Z,252.05
2019-04-01T15:28:08.259Z,240.28
2019-04-01T15:31:09.687Z,81.08
2019-04-01T15:34:11.186Z,107.20
2019-04-01T15:37:12.677Z,122.25
2019-04-01T15:40:15.536Z,538.87
2019-04-01T15:43:16.996Z,304.73
2019-04-01T15:46:18.437Z,142.70
2019-04-01T15:49:19.977Z,127.45
2019-04-01T15:52:21.445Z,316.05
2019-04-01T15:55:22.896Z,156.87
2019-04-01T15:58:24.436Z,155.78
2019-04-01T16:01:25.869Z,93.37
2019-04-01T16:04:27.369Z,111.88
2019-04-01T16:07:29.017Z,93.80
2019-04-01T16:10:30.713Z,55.00
2019-04-01T16:13:32.152Z,82.70
2019-04-01T16:16:33.665Z,58.50
2019-04-01T16:19:35.141Z,67.00
2019-04-01T16:22:36.551Z,56.48
2019-04-01T16:25:38.064Z,66.67
2019-04-01T16:28:39.502Z,54.20
2019-04-01T16:31:41.024Z,71.65
2019-04-01T16:34:42.474Z,54.90
2019-04-01T16:37:43.922Z,57.98
2019-04-01T16:40:45.379Z,46.90
2019-04-01T16:43:47.488Z,31.87
2019-04-01T16:46:48.974Z,30.65
2019-04-01T16:49:50.424Z,28.95
2019-04-01T16:52:51.923Z,33.35
2019-04-01T16:55:53.340Z,42.30
2019-04-01T16:58:54.814Z,35.30
2019-04-01T17:01:57.811Z,36.83
2019-04-01T17:05:00.387Z,36.25
2019-04-01T17:08:02.048Z,28.35
2019-04-01T17:11:03.613Z,29.75
2019-04-01T17:14:05.191Z,29.55
2019-04-01T17:17:06.811Z,22.58
2019-04-01T17:20:08.574Z,26.12
2019-04-01T17:23:10.164Z,22.40
2019-04-01T17:26:11.576Z,24.23
2019-04-01T17:29:13.133Z,19.85
2019-04-01T17:32:14.732Z,19.77
2019-04-01T17:35:16.272Z,20.05
2019-04-01T17:38:17.706Z,19.62
2019-04-01T17:41:19.214Z,18.90
2019-04-01T17:44:20.724Z,19.95
2019-04-01T17:47:22.326Z,16.00
2019-04-01T17:50:23.803Z,16.52
2019-04-01T17:53:25.233Z,17.50
2019-04-01T17:56:26.654Z,14.15
2019-04-01T17:59:28.116Z,13.25
2019-04-01T18:02:31.042Z,13.93
2019-04-01T18:05:32.504Z,13.32
2019-04-01T18:08:34.213Z,14.43
2019-04-01T18:11:36.012Z,13.55
2019-04-01T18:14:37.416Z,11.40
2019-04-01T18:17:38.899Z,13.45
2019-04-01T18:20:40.408Z,9.60
2019-04-01T18:23:41.878Z,9.03
2019-04-01T18:26:43.278Z,7.83
2019-04-01T18:29:44.726Z,8.08
2019-04-01T18:32:53.392Z,6.75
2019-04-01T18:35:52.166Z,6.95
2019-04-01T18:38:53.563Z,7.37
2019-04-01T18:41:54.987Z,7.40
2019-04-01T18:44:56.399Z,6.78
2019-04-01T18:47:57.863Z,6.80
2019-04-01T18:50:59.301Z,7.03
2019-04-01T18:54:00.728Z,7.90
2019-04-01T18:57:06.019Z,6.80
2019-04-01T19:00:12.349Z,7.10
2019-04-01T19:03:13.820Z,7.72
2019-04-01T19:06:15.301Z,7.35
2019-04-01T19:09:16.839Z,7.28
2019-04-01T19:12:18.294Z,7.95
2019-04-01T19:15:19.679Z,7.87
2019-04-01T19:18:21.116Z,8.28
2019-04-01T19:21:22.559Z,7.90
2019-04-01T19:24:24.047Z,7.62
2019-04-01T19:27:25.481Z,7.37
2019-04-01T19:30:28.086Z,7.28
2019-04-01T19:33:29.521Z,7.58
2019-04-01T19:36:30.946Z,7.45
2019-04-01T19:39:32.461Z,7.50
2019-04-01T19:42:33.952Z,8.65
2019-04-01T19:45:38.144Z,8.05
2019-04-01T19:48:39.585Z,7.67
2019-04-01T19:51:41.024Z,8.38
2019-04-01T19:54:42.464Z,8.08
2019-04-01T19:57:43.897Z,7.90
2019-04-01T20:00:45.341Z,8.93
2019-04-01T20:03:48.756Z,8.93
2019-04-01T20:06:50.164Z,8.75
2019-04-01T20:09:51.696Z,8.68
2019-04-01T20:12:53.108Z,8.25
2019-04-01T20:15:54.558Z,8.03
2019-04-01T20:18:56.018Z,8.50
2019-04-01T20:21:57.697Z,8.78
2019-04-01T20:24:59.115Z,8.13
2019-04-01T20:28:00.577Z,8.70
2019-04-01T20:31:03.152Z,8.00
2019-04-01T20:34:04.694Z,8.53
2019-04-01T20:37:06.201Z,8.60
2019-04-01T20:40:09.627Z,8.43
2019-04-01T20:43:11.115Z,8.68
2019-04-01T20:46:12.570Z,7.95
2019-04-01T20:49:14.088Z,8.80
2019-04-01T20:52:15.589Z,8.80
2019-04-01T20:55:17.092Z,8.18
2019-04-01T20:58:18.541Z,8.88
2019-04-01T21:01:19.980Z,8.38
2019-04-01T21:04:21.405Z,7.97
2019-04-01T21:07:22.883Z,9.03
2019-04-01T21:10:24.298Z,8.33
2019-04-01T21:13:25.736Z,9.28
2019-04-01T21:16:28.080Z,8.55
2019-04-01T21:19:29.599Z,9.13
2019-04-01T21:22:31.038Z,9.10
2019-04-01T21:25:32.480Z,8.78
2019-04-01T21:28:33.899Z,9.25
2019-04-01T21:31:35.337Z,8.45
2019-04-01T21:34:36.749Z,8.68
2019-04-01T21:37:38.198Z,8.13
2019-04-01T21:40:39.611Z,8.30
2019-04-01T21:43:41.059Z,8.05
2019-04-01T21:46:43.184Z,8.50
2019-04-01T21:49:45.074Z,8.15
2019-04-01T21:52:46.532Z,8.70
2019-04-01T21:55:47.944Z,8.70
2019-04-01T21:58:49.541Z,9.18
2019-04-01T22:01:52.069Z,8.30
2019-04-01T22:04:53.540Z,9.30
2019-04-01T22:07:54.969Z,8.43
2019-04-01T22:10:56.406Z,8.25
2019-04-01T22:13:57.906Z,8.73
2019-04-01T22:16:59.351Z,8.03
2019-04-01T22:20:01.835Z,8.50
2019-04-01T22:23:03.324Z,8.10
2019-04-01T22:26:04.827Z,8.58
2019-04-01T22:29:06.346Z,8.58
2019-04-01T22:32:07.784Z,7.70
2019-04-01T22:35:09.444Z,8.93
2019-04-01T22:38:24.537Z,8.33
2019-04-01T22:41:17.089Z,8.20
2019-04-01T22:44:18.498Z,7.70
2019-04-01T22:47:19.951Z,8.15
2019-04-01T22:50:21.375Z,8.20
2019-04-01T22:53:22.852Z,8.18
2019-04-01T22:56:24.294Z,8.73
2019-04-01T22:59:25.766Z,8.00
2019-04-01T23:02:27.193Z,7.83
2019-04-01T23:05:28.652Z,8.10
2019-04-01T23:08:31.064Z,7.85
2019-04-01T23:11:33.875Z,8.38
2019-04-01T23:14:35.386Z,8.05
2019-04-01T23:17:38.213Z,8.43
2019-04-01T23:20:40.117Z,8.40
2019-04-01T23:23:41.562Z,7.83
2019-04-01T23:26:42.969Z,7.92
2019-04-01T23:29:44.412Z,7.70
2019-04-01T23:32:45.896Z,7.97
2019-04-01T23:35:47.328Z,8.85
2019-04-01T23:38:48.779Z,8.53
2019-04-01T23:41:50.249Z,7.83
2019-04-01T23:44:52.257Z,8.05
2019-04-01T23:47:54.080Z,8.13
2019-04-01T23:50:55.544Z,8.43
2019-04-01T23:53:56.972Z,8.58
2019-04-01T23:56:58.400Z,8.33
2019-04-01T23:59:59.839Z,7.92
